Time;durP1;ratioP1;P1;durP2;ratioP2;P2;SDS_P1;SDS_P2;PMS_P1;PMS_P2;Temp;Humidity;BMP_temperature;BMP_pressure;BME280_temperature;BME280_humidity;BME280_pressure;Samples;Min_cycle;Max_cycle;Signal;HPM_P1;HPM_P2
2023/05/25 00:01:43;;;;;;;17.27;9.50;;;;;;;17.33;100.00;100316.88;4871846;29;20052;-87
2023/05/25 00:12:27;;;;;;;;;;;;;;;17.40;100.00;100340.75;4876068;29;20408;-87
2023/05/25 00:15:11;;;;;;;17.85;10.18;;;;;;;17.35;100.00;100338.69;4874170;29;19927;-88
2023/05/25 00:17:55;;;;;;;13.38;8.93;;;;;;;17.34;100.00;100328.31;4875429;29;20056;-87
2023/05/25 00:20:39;;;;;;;22.63;10.65;;;;;;;18.07;100.00;100334.41;4871439;29;20044;-87
2023/05/25 00:23:23;;;;;;;18.48;10.38;;;;;;;17.36;100.00;100321.75;4873016;29;20452;-87
2023/05/25 00:26:07;;;;;;;17.20;8.40;;;;;;;17.37;100.00;100330.53;4871283;29;20048;-86
2023/05/25 00:28:51;;;;;;;17.48;9.77;;;;;;;17.42;100.00;100338.69;4872417;29;20595;-85
2023/05/25 00:31:35;;;;;;;16.13;9.60;;;;;;;17.38;100.00;100334.81;4872001;29;20122;-86
2023/05/25 00:34:19;;;;;;;15.77;9.85;;;;;;;17.33;100.00;100331.97;4870082;29;20056;-87
2023/05/25 00:37:04;;;;;;;13.68;8.60;;;;;;;17.36;100.00;100336.88;4872548;29;20111;-86
2023/05/25 00:39:47;;;;;;;16.80;9.10;;;;;;;17.38;100.00;100343.59;4874248;29;20096;-86
2023/05/25 00:42:32;;;;;;;17.73;9.82;;;;;;;17.38;100.00;100340.94;4869256;29;20084;-86
2023/05/25 00:45:16;;;;;;;19.50;9.70;;;;;;;17.35;100.00;100337.91;4875529;29;20101;-87
2023/05/25 00:48:02;;;;;;;20.30;9.63;;;;;;;17.37;100.00;100327.88;4876931;29;20040;-89
2023/05/25 00:50:46;;;;;;;15.30;9.05;;;;;;;17.35;100.00;100336.03;4876307;29;20056;-89
2023/05/25 00:53:32;;;;;;;15.20;9.10;;;;;;;17.45;100.00;100335.63;4870973;29;20109;-87
2023/05/25 00:56:29;;;;;;;19.33;9.77;;;;;;;18.74;100.00;100341.16;4869833;29;20052;-86
2023/05/25 00:59:19;;;;;;;16.25;8.75;;;;;;;18.86;100.00;100334.06;4867637;29;20066;-86
2023/05/25 01:02:06;;;;;;;17.85;9.77;;;;;;;18.86;100.00;100334.06;4871704;29;20087;-86
2023/05/25 01:04:53;;;;;;;16.88;9.63;;;;;;;18.95;100.00;100354.06;4872473;29;20059;-86
2023/05/25 01:07:39;;;;;;;16.92;10.82;;;;;;;18.79;100.00;100350.09;4869361;29;20070;-87
2023/05/25 01:10:25;;;;;;;19.45;10.70;;;;;;;18.97;100.00;100346.69;4867999;29;20053;-84
2023/05/25 01:13:11;;;;;;;18.25;10.60;;;;;;;18.94;100.00;100346.28;4867181;29;20048;-86
2023/05/25 01:15:55;;;;;;;20.33;10.55;;;;;;;19.01;100.00;100349.75;4867789;29;20052;-87
2023/05/25 01:18:40;;;;;;;21.63;10.88;;;;;;;18.99;100.00;100343.84;4866778;29;20149;-86
2023/05/25 01:22:03;;;;;;;20.52;11.00;;;;;;;18.94;100.00;100341.78;4873790;29;20052;-85
2023/05/25 01:24:52;;;;;;;17.98;11.00;;;;;;;18.92;100.00;100338.53;4861477;29;20072;-87
2023/05/25 01:27:45;;;;;;;20.60;11.25;;;;;;;18.89;100.00;100338.16;4868147;29;20100;-88
2023/05/25 01:30:32;;;;;;;19.10;11.67;;;;;;;18.73;100.00;100334.19;4870301;29;20092;-85
2023/05/25 01:37:03;;;;;;;24.60;11.95;;;;;;;18.42;100.00;100332.16;4872310;29;20129;-84
2023/05/25 01:39:48;;;;;;;20.25;11.52;;;;;;;18.57;100.00;100331.03;4868776;29;20044;-85
2023/05/25 01:42:32;;;;;;;20.05;11.73;;;;;;;18.60;100.00;100330.59;4880046;29;20048;-84
2023/05/25 01:45:16;;;;;;;23.25;12.13;;;;;;;18.58;100.00;100334.53;4868451;29;20052;-87
2023/05/25 01:48:24;;;;;;;22.20;11.60;;;;;;;18.61;100.00;100336.75;4869113;29;20052;-88
2023/05/25 01:51:25;;;;;;;17.88;10.15;;;;;;;18.47;100.00;100326.19;4872721;29;20084;-86
2023/05/25 01:54:18;;;;;;;23.30;12.25;;;;;;;17.83;100.00;100331.44;4871597;29;20072;-86
2023/05/25 01:57:06;;;;;;;17.77;10.40;;;;;;;17.05;100.00;100341.81;4866814;29;20048;-84
2023/05/25 01:59:52;;;;;;;20.08;10.55;;;;;;;16.86;100.00;100343.41;4870919;29;20075;-84
2023/05/25 02:02:37;;;;;;;19.80;10.27;;;;;;;16.87;100.00;100347.69;4874207;29;20072;-86
2023/05/25 02:05:22;;;;;;;23.25;11.05;;;;;;;16.77;100.00;100348.09;4871740;29;20060;-85
2023/05/25 02:08:06;;;;;;;20.65;10.85;;;;;;;16.77;100.00;100349.94;4871850;29;20044;-86
2023/05/25 02:10:50;;;;;;;16.30;9.30;;;;;;;16.70;100.00;100357.88;4869496;29;20078;-87
2023/05/25 02:13:35;;;;;;;17.75;10.57;;;;;;;16.59;100.00;100348.69;4872127;29;20056;-84
2023/05/25 02:16:19;;;;;;;19.83;11.20;;;;;;;16.65;100.00;100363.78;4871610;29;20513;-86
2023/05/25 02:19:03;;;;;;;21.13;11.20;;;;;;;16.62;100.00;100355.44;4867160;29;20072;-86
2023/05/25 02:21:46;;;;;;;21.10;11.20;;;;;;;16.53;100.00;100347.66;4869072;29;20048;-85
2023/05/25 02:24:30;;;;;;;22.98;12.23;;;;;;;16.50;100.00;100352.53;4873910;29;20456;-87
2023/05/25 02:27:14;;;;;;;17.30;10.85;;;;;;;16.40;100.00;100353.75;4872891;29;20166;-86
2023/05/25 02:29:58;;;;;;;27.70;11.95;;;;;;;16.36;100.00;100355.19;4869396;29;20056;-85
2023/05/25 02:32:42;;;;;;;23.27;10.80;;;;;;;16.37;100.00;100355.97;4868096;29;20077;-86
2023/05/25 02:35:27;;;;;;;23.35;10.90;;;;;;;16.44;100.00;100362.13;4871895;29;20044;-85
2023/05/25 02:38:10;;;;;;;25.02;11.65;;;;;;;16.37;100.00;100359.47;4866482;29;20081;-86
2023/05/25 02:40:55;;;;;;;23.77;11.82;;;;;;;16.41;100.00;100358.03;4868200;29;20088;-85
2023/05/25 02:43:39;;;;;;;16.90;10.57;;;;;;;16.51;100.00;100362.16;4864686;29;20069;-86
2023/05/25 02:46:23;;;;;;;23.55;11.73;;;;;;;16.49;100.00;100364.16;4870934;29;20044;-86
2023/05/25 02:49:06;;;;;;;21.88;11.23;;;;;;;16.38;100.00;100368.22;4870761;29;20044;-87
2023/05/25 02:51:50;;;;;;;17.92;10.90;;;;;;;16.46;100.00;100359.25;4870923;29;20095;-87
2023/05/25 02:54:35;;;;;;;19.55;10.40;;;;;;;17.42;100.00;100357.25;4866548;29;20048;-85
2023/05/25 02:57:19;;;;;;;13.30;8.95;;;;;;;17.63;100.00;100360.69;4868375;29;20051;-87
2023/05/25 03:00:06;;;;;;;21.90;10.20;;;;;;;16.37;100.00;100356.81;4872478;29;20108;-86
2023/05/25 03:02:50;;;;;;;22.17;10.98;;;;;;;16.41;100.00;100363.34;4872965;29;20101;-86
2023/05/25 03:05:34;;;;;;;23.48;9.93;;;;;;;16.34;100.00;100359.03;4865892;29;20659;-88
2023/05/25 03:08:18;;;;;;;19.70;10.70;;;;;;;16.19;100.00;100369.81;4867532;29;20047;-87
2023/05/25 03:11:02;;;;;;;24.50;10.65;;;;;;;16.22;100.00;100358.81;4867663;29;20085;-86
2023/05/25 03:13:46;;;;;;;20.27;12.05;;;;;;;16.05;100.00;100366.28;4863521;29;20415;-85
2023/05/25 03:16:34;;;;;;;22.88;12.02;;;;;;;16.25;100.00;100372.47;4870027;29;20423;-85
2023/05/25 03:19:19;;;;;;;22.67;11.30;;;;;;;16.26;100.00;100365.34;4872407;29;20052;-86
2023/05/25 03:22:04;;;;;;;21.75;11.18;;;;;;;16.24;100.00;100376.16;4868451;29;20049;-87
2023/05/25 03:24:48;;;;;;;28.85;11.77;;;;;;;16.08;100.00;100379.13;4869755;29;20049;-86
2023/05/25 03:27:33;;;;;;;23.25;11.70;;;;;;;16.00;100.00;100380.13;4869689;29;20056;-85
2023/05/25 03:30:17;;;;;;;20.67;11.95;;;;;;;16.09;100.00;100376.28;4871017;29;20140;-85
2023/05/25 03:33:01;;;;;;;21.38;11.05;;;;;;;16.18;100.00;100368.97;4869037;29;20048;-86
2023/05/25 03:35:45;;;;;;;24.80;12.02;;;;;;;16.06;100.00;100381.97;4865705;29;20045;-86
2023/05/25 03:38:30;;;;;;;25.85;11.82;;;;;;;16.09;100.00;100383.41;4866178;29;20524;-83
2023/05/25 03:41:14;;;;;;;19.60;11.23;;;;;;;16.05;100.00;100375.03;4864706;29;20051;-86
2023/05/25 03:43:58;;;;;;;22.65;11.65;;;;;;;16.04;100.00;100389.31;4868482;29;20044;-84
2023/05/25 03:46:42;;;;;;;20.55;11.85;;;;;;;15.95;100.00;100377.25;4870163;29;20049;-84
2023/05/25 03:49:26;;;;;;;24.17;11.93;;;;;;;15.81;100.00;100381.63;4875979;29;20426;-85
2023/05/25 03:52:11;;;;;;;25.92;11.82;;;;;;;15.91;100.00;100389.22;4870886;29;20076;-86
2023/05/25 03:54:55;;;;;;;20.42;10.75;;;;;;;15.61;100.00;100389.47;4870245;29;20125;-85
2023/05/25 03:57:40;;;;;;;27.20;11.38;;;;;;;15.67;100.00;100392.16;4873084;29;20163;-84
2023/05/25 04:00:24;;;;;;;22.83;10.73;;;;;;;15.60;100.00;100382.53;4873334;29;20085;-86
2023/05/25 04:03:09;;;;;;;18.67;10.25;;;;;;;15.89;100.00;100396.56;4872190;29;20115;-86
2023/05/25 04:05:53;;;;;;;22.83;11.18;;;;;;;15.80;100.00;100396.69;4872421;29;20049;-86
2023/05/25 04:08:39;;;;;;;18.80;10.40;;;;;;;15.79;100.00;100403.00;4875477;29;20072;-88
2023/05/25 04:11:24;;;;;;;24.25;9.82;;;;;;;15.67;100.00;100404.56;4875344;29;20093;-88
2023/05/25 04:14:08;;;;;;;20.33;9.32;;;;;;;15.70;100.00;100406.81;4872104;29;20078;-88
2023/05/25 04:16:52;;;;;;;21.45;9.38;;;;;;;15.74;100.00;100405.44;4875085;29;20057;-87
2023/05/25 04:19:36;;;;;;;16.45;9.00;;;;;;;15.54;100.00;100405.28;4873028;29;20068;-86
2023/05/25 04:22:20;;;;;;;19.98;9.52;;;;;;;15.49;100.00;100413.00;4872346;29;20092;-87
2023/05/25 04:25:05;;;;;;;17.52;9.45;;;;;;;15.47;100.00;100415.81;4874018;29;20075;-84
2023/05/25 04:27:50;;;;;;;22.80;10.40;;;;;;;15.20;100.00;100410.34;4873233;29;20101;-85
2023/05/25 04:30:35;;;;;;;19.85;9.73;;;;;;;15.54;100.00;100410.59;4870744;29;20072;-83
2023/05/25 04:33:19;;;;;;;24.83;9.98;;;;;;;15.41;100.00;100416.59;4864503;29;20093;-83
2023/05/25 04:36:09;;;;;;;25.55;9.75;;;;;;;15.44;100.00;100423.34;4869302;29;20556;-83
2023/05/25 04:38:54;;;;;;;23.15;10.15;;;;;;;15.51;100.00;100427.66;4868311;29;20048;-85
2023/05/25 04:41:38;;;;;;;22.25;9.85;;;;;;;15.42;100.00;100410.31;4868793;29;20052;-84
2023/05/25 04:44:23;;;;;;;25.45;9.85;;;;;;;15.52;100.00;100418.69;4873639;29;20044;-87
2023/05/25 04:47:07;;;;;;;21.48;9.45;;;;;;;15.77;100.00;100430.69;4873494;29;20139;-85
2023/05/25 04:49:51;;;;;;;23.73;10.00;;;;;;;15.93;100.00;100434.91;4871579;29;20124;-84
2023/05/25 04:52:36;;;;;;;26.13;9.82;;;;;;;15.77;100.00;100436.81;4873363;29;20094;-85
2023/05/25 04:55:20;;;;;;;20.50;10.05;;;;;;;15.49;100.00;100432.31;4868437;29;20060;-85
2023/05/25 04:58:04;;;;;;;23.25;9.68;;;;;;;15.73;100.00;100437.38;4873855;29;20071;-86
2023/05/25 05:00:48;;;;;;;22.20;9.80;;;;;;;15.66;100.00;100439.97;4873002;29;20100;-87
2023/05/25 05:03:32;;;;;;;16.77;9.82;;;;;;;15.71;100.00;100441.03;4865441;29;20044;-87
2023/05/25 05:06:17;;;;;;;17.08;9.20;;;;;;;15.40;100.00;100441.44;4875415;29;20109;-85
2023/05/25 05:09:02;;;;;;;17.88;8.93;;;;;;;15.73;100.00;100440.84;4871311;29;20056;-89
2023/05/25 05:11:46;;;;;;;19.05;8.82;;;;;;;16.01;100.00;100440.03;4873622;29;20152;-85
2023/05/25 05:14:30;;;;;;;17.90;8.90;;;;;;;15.82;100.00;100434.38;4874217;29;20044;-87
2023/05/25 05:17:14;;;;;;;21.35;8.95;;;;;;;16.18;100.00;100437.03;4870859;29;20515;-84
2023/05/25 05:19:58;;;;;;;21.45;9.23;;;;;;;16.15;100.00;100442.75;4870878;29;20066;-83
2023/05/25 05:22:42;;;;;;;25.50;8.95;;;;;;;16.29;100.00;100449.72;4870206;29;20056;-84
2023/05/25 05:25:26;;;;;;;23.05;9.57;;;;;;;15.98;100.00;100448.34;4874017;29;20043;-85
2023/05/25 05:28:10;;;;;;;29.13;10.52;;;;;;;15.97;100.00;100452.03;4867995;29;20160;-84
2023/05/25 05:30:54;;;;;;;22.90;9.68;;;;;;;15.77;100.00;100463.28;4869127;29;20685;-84
2023/05/25 05:33:39;;;;;;;21.42;9.07;;;;;;;16.07;100.00;100455.13;4868821;29;20085;-84
2023/05/25 05:36:24;;;;;;;23.05;9.77;;;;;;;15.99;100.00;100458.75;4867577;29;20085;-84
2023/05/25 05:39:08;;;;;;;23.30;10.02;;;;;;;16.15;100.00;100463.94;4872145;29;20064;-85
2023/05/25 05:41:52;;;;;;;21.92;9.23;;;;;;;16.07;100.00;100460.41;4872080;29;20044;-86
2023/05/25 05:44:37;;;;;;;21.77;9.70;;;;;;;15.81;100.00;100469.81;4870059;29;20064;-84
2023/05/25 05:47:21;;;;;;;16.30;8.82;;;;;;;15.41;100.00;100465.03;4873627;29;20045;-83
2023/05/25 05:50:05;;;;;;;21.38;9.32;;;;;;;15.11;100.00;100474.94;4873384;29;20182;-85
2023/05/25 05:52:50;;;;;;;16.27;8.05;;;;;;;15.34;100.00;100468.66;4873530;29;20116;-85
2023/05/25 05:55:34;;;;;;;14.75;7.55;;;;;;;15.36;100.00;100469.28;4868087;29;20133;-87
2023/05/25 05:58:18;;;;;;;27.70;8.48;;;;;;;15.16;100.00;100477.88;4867364;29;20101;-85
2023/05/25 06:01:03;;;;;;;20.50;8.30;;;;;;;15.40;100.00;100473.19;4870119;29;20083;-85
2023/05/25 06:03:47;;;;;;;17.05;7.50;;;;;;;15.36;100.00;100480.66;4875638;29;20391;-87
2023/05/25 06:06:33;;;;;;;18.13;7.28;;;;;;;15.33;100.00;100478.41;4868952;29;20044;-86
2023/05/25 06:09:17;;;;;;;15.57;7.35;;;;;;;15.30;100.00;100480.59;4872053;29;20448;-88
2023/05/25 06:12:02;;;;;;;17.90;7.43;;;;;;;15.31;100.00;100480.44;4872109;29;20048;-89
2023/05/25 06:14:48;;;;;;;19.15;6.93;;;;;;;15.61;100.00;100482.09;4871904;29;20114;-88
2023/05/25 06:17:34;;;;;;;21.05;7.78;;;;;;;15.68;99.67;100477.66;4868857;29;20052;-87
2023/05/25 06:20:18;;;;;;;16.42;6.93;;;;;;;15.58;99.14;100475.34;4866790;29;20048;-84
2023/05/25 06:23:02;;;;;;;20.60;7.53;;;;;;;15.47;98.93;100475.88;4874624;29;20068;-83
2023/05/25 06:25:46;;;;;;;12.23;6.22;;;;;;;15.43;98.07;100483.38;4873749;29;20072;-87
2023/05/25 06:28:38;;;;;;;17.70;7.35;;;;;;;15.71;96.03;100490.50;5105715;27;20394;-84
2023/05/25 06:31:23;;;;;;;17.65;7.00;;;;;;;15.78;94.70;100486.09;5105550;28;20040;-82
2023/05/25 06:34:07;;;;;;;21.33;7.20;;;;;;;15.62;94.36;100487.19;5096808;28;20046;-86
2023/05/25 06:36:51;;;;;;;16.23;7.22;;;;;;;15.62;92.95;100487.19;5100292;28;20500;-85
2023/05/25 06:39:35;;;;;;;15.38;6.88;;;;;;;15.50;94.02;100486.09;5102311;28;20452;-86
2023/05/25 06:42:19;;;;;;;20.75;7.03;;;;;;;15.87;94.94;100484.13;5097688;28;20133;-86
2023/05/25 06:45:04;;;;;;;15.27;6.63;;;;;;;16.07;95.16;100478.16;5099075;28;20042;-84
2023/05/25 06:47:48;;;;;;;19.95;7.63;;;;;;;15.81;94.77;100487.50;5104075;28;20039;-83
2023/05/25 06:50:32;;;;;;;15.43;7.30;;;;;;;16.21;93.33;100481.69;5113200;28;20086;-83
2023/05/25 06:53:16;;;;;;;24.02;6.93;;;;;;;16.27;92.61;100494.13;5107642;28;20090;-82
2023/05/25 06:56:00;;;;;;;19.15;7.53;;;;;;;16.25;94.24;100496.16;5104723;28;20051;-87
2023/05/25 06:58:45;;;;;;;21.40;7.82;;;;;;;16.36;92.56;100500.91;5101496;28;20385;-84
2023/05/25 07:01:29;;;;;;;17.77;8.65;;;;;;;16.19;94.36;100491.66;5104552;28;20409;-86
2023/05/25 07:04:13;;;;;;;23.20;6.93;;;;;;;16.24;92.21;100497.19;5102773;28;20058;-86
2023/05/25 07:06:57;;;;;;;20.02;6.75;;;;;;;16.33;93.43;100498.66;5105326;28;20088;-90
2023/05/25 07:09:42;;;;;;;24.45;7.93;;;;;;;16.64;93.75;100500.00;5105513;28;20048;-90
2023/05/25 07:12:26;;;;;;;20.85;8.18;;;;;;;16.68;94.09;100498.59;5098433;28;20055;-89
2023/05/25 07:15:10;;;;;;;22.67;8.40;;;;;;;16.72;93.25;100506.97;5109824;28;20113;-91
2023/05/25 07:17:56;;;;;;;23.45;7.35;;;;;;;16.74;94.17;100514.72;5101739;28;20104;-87
2023/05/25 07:20:40;;;;;;;25.05;7.82;;;;;;;16.88;94.59;100515.59;5102574;28;20046;-86
2023/05/25 07:23:25;;;;;;;18.95;7.40;;;;;;;16.96;92.93;100518.88;5102585;28;20051;-86
2023/05/25 07:26:09;;;;;;;19.73;8.43;;;;;;;17.06;91.84;100520.34;5100180;28;20130;-87
2023/05/25 07:28:53;;;;;;;18.45;7.10;;;;;;;17.20;90.07;100527.31;5103943;28;20504;-87
2023/05/25 07:31:37;;;;;;;21.40;7.38;;;;;;;16.68;91.03;100511.03;5099981;28;20051;-89
2023/05/25 07:34:21;;;;;;;16.52;7.78;;;;;;;16.84;90.84;100523.13;5106361;28;20105;-87
2023/05/25 07:37:05;;;;;;;16.23;8.00;;;;;;;17.11;91.34;100524.03;5109311;28;20101;-86
2023/05/25 07:39:49;;;;;;;31.58;8.98;;;;;;;16.92;91.03;100532.72;5088246;28;20119;-86
2023/05/25 07:42:34;;;;;;;23.10;8.73;;;;;;;17.02;91.50;100527.91;5094641;28;20098;-86
2023/05/25 07:45:18;;;;;;;20.33;7.85;;;;;;;17.12;92.17;100533.63;5091045;28;20066;-86
2023/05/25 07:48:02;;;;;;;23.63;7.85;;;;;;;17.39;93.16;100532.84;5092915;28;20047;-86
2023/05/25 07:50:46;;;;;;;22.90;8.73;;;;;;;17.14;92.92;100536.09;5085366;28;20044;-86
2023/05/25 07:53:30;;;;;;;21.45;8.13;;;;;;;17.31;91.98;100527.75;5084258;28;20043;-85
2023/05/25 07:56:14;;;;;;;27.33;8.98;;;;;;;17.34;91.43;100537.97;5092791;28;20047;-86
2023/05/25 07:58:59;;;;;;;23.95;8.35;;;;;;;17.09;91.67;100533.19;5092817;28;20088;-86
2023/05/25 08:01:44;;;;;;;27.65;8.85;;;;;;;17.18;92.68;100533.84;5085483;28;20051;-86
2023/05/25 08:04:29;;;;;;;25.75;9.32;;;;;;;17.41;92.45;100528.16;5085192;28;20402;-86
2023/05/25 08:07:14;;;;;;;23.23;7.78;;;;;;;17.65;92.12;100537.38;5085362;28;20501;-86
2023/05/25 08:09:58;;;;;;;21.30;8.05;;;;;;;17.73;92.35;100528.38;5083761;28;20036;-83
2023/05/25 08:12:43;;;;;;;23.38;9.07;;;;;;;17.77;91.78;100528.75;5081592;28;20505;-81
2023/05/25 08:15:27;;;;;;;23.27;9.98;;;;;;;17.81;91.36;100530.81;5083569;28;20118;-80
2023/05/25 08:18:11;;;;;;;25.17;10.38;;;;;;;17.82;90.73;100540.41;5088412;28;20082;-83
2023/05/25 08:20:55;;;;;;;22.42;8.43;;;;;;;17.79;90.93;100546.13;5068399;28;20109;-82
2023/05/25 08:23:41;;;;;;;19.10;8.10;;;;;;;18.01;90.09;100558.38;5085047;28;20038;-83
2023/05/25 08:26:25;;;;;;;24.60;9.20;;;;;;;17.53;90.66;100541.63;5082586;28;20035;-84
2023/05/25 08:29:12;;;;;;;23.70;8.73;;;;;;;17.57;91.21;100556.13;5083808;28;20115;-83
2023/05/25 08:31:56;;;;;;;20.95;8.40;;;;;;;17.54;90.05;100552.06;5071797;28;20035;-82
2023/05/25 08:34:40;;;;;;;19.80;8.65;;;;;;;17.61;91.67;100549.41;5083303;28;20063;-82
2023/05/25 08:37:25;;;;;;;30.15;10.57;;;;;;;17.63;91.34;100560.66;5080062;28;20070;-82
2023/05/25 08:40:15;;;;;;;23.15;10.30;;;;;;;17.66;91.38;100557.59;5080232;28;20459;-83
2023/05/25 08:42:59;;;;;;;25.40;10.40;;;;;;;18.04;91.04;100564.13;5082760;28;20114;-83
2023/05/25 08:45:43;;;;;;;21.30;8.43;;;;;;;18.28;90.78;100561.84;5080736;28;20043;-83
2023/05/25 08:48:29;;;;;;;18.63;7.68;;;;;;;18.59;89.70;100559.50;5081906;28;20035;-83
2023/05/25 08:51:16;;;;;;;21.42;8.25;;;;;;;18.63;89.10;100569.50;5078045;28;20079;-83
2023/05/25 08:54:09;;;;;;;27.52;8.88;;;;;;;17.60;90.78;100560.22;5079311;28;20067;-82
2023/05/25 08:57:24;;;;;;;21.92;8.18;;;;;;;18.12;90.24;100563.91;5081005;28;20036;-83
2023/05/25 09:00:14;;;;;;;18.58;7.93;;;;;;;18.20;89.64;100565.53;5081913;28;20096;-83
2023/05/25 09:03:10;;;;;;;19.55;8.52;;;;;;;18.21;89.69;100563.69;5079831;28;20066;-82
2023/05/25 09:05:56;;;;;;;17.23;7.85;;;;;;;18.03;90.20;100567.81;5077701;28;20090;-82
2023/05/25 09:08:42;;;;;;;16.33;7.68;;;;;;;18.48;88.73;100547.69;5077947;28;20105;-82
2023/05/25 09:11:27;;;;;;;21.88;7.55;;;;;;;18.61;87.76;100562.78;5080139;28;20129;-82
2023/05/25 09:14:11;;;;;;;17.00;8.35;;;;;;;18.73;87.00;100563.72;5081751;28;20071;-81
2023/05/25 09:16:57;;;;;;;16.50;7.72;;;;;;;18.81;84.89;100568.84;5076773;28;20039;-82
2023/05/25 09:19:41;;;;;;;23.45;8.63;;;;;;;18.48;85.68;100560.97;5082755;28;20046;-82
2023/05/25 09:22:25;;;;;;;19.52;8.35;;;;;;;18.30;84.50;100569.59;5081684;28;20539;-83
2023/05/25 09:25:10;;;;;;;17.88;7.93;;;;;;;18.69;82.64;100573.16;5081582;28;20043;-83
2023/05/25 09:27:57;;;;;;;17.95;7.82;;;;;;;18.81;82.60;100570.66;5084311;28;20053;-83
2023/05/25 09:30:41;;;;;;;24.48;8.73;;;;;;;18.94;81.61;100581.25;5077548;28;20445;-84
2023/05/25 09:33:25;;;;;;;12.40;6.95;;;;;;;18.90;78.73;100574.72;5078714;28;20038;-83
2023/05/25 09:36:11;;;;;;;15.73;6.63;;;;;;;18.80;79.21;100577.00;5074375;28;20046;-82
2023/05/25 09:38:56;;;;;;;15.98;6.97;;;;;;;18.90;79.08;100580.06;5075448;28;20114;-83
2023/05/25 09:41:40;;;;;;;18.02;7.97;;;;;;;18.87;80.16;100585.81;5081820;28;20051;-83
2023/05/25 09:44:25;;;;;;;18.13;8.13;;;;;;;18.74;81.17;100583.19;5077326;28;20043;-80
2023/05/25 09:47:12;;;;;;;17.48;8.13;;;;;;;18.99;81.49;100583.31;5093440;28;20406;-80
2023/05/25 09:49:56;;;;;;;16.35;8.27;;;;;;;19.09;80.42;100586.31;5082458;28;20043;-80
2023/05/25 09:52:41;;;;;;;17.77;7.93;;;;;;;19.18;79.97;100597.53;5087304;28;20043;-80
2023/05/25 09:55:28;;;;;;;19.33;8.23;;;;;;;19.16;80.66;100588.94;5083375;28;20166;-77
2023/05/25 09:58:12;;;;;;;19.08;7.95;;;;;;;19.31;81.21;100590.50;5078679;28;20035;-77
2023/05/25 10:00:57;;;;;;;14.55;7.72;;;;;;;19.45;79.52;100592.03;5080076;28;20039;-78
2023/05/25 10:03:47;;;;;;;12.63;6.53;;;;;;;19.74;77.50;100592.44;5081235;28;20046;-79
2023/05/25 10:06:32;;;;;;;14.60;6.68;;;;;;;19.60;76.97;100582.94;5080180;28;20085;-80
2023/05/25 10:09:21;;;;;;;17.58;7.93;;;;;;;19.86;78.35;100597.09;5076532;28;20389;-80
2023/05/25 10:12:06;;;;;;;14.05;6.97;;;;;;;20.00;77.30;100587.97;5085076;28;20039;-80
2023/05/25 10:14:50;;;;;;;13.43;7.53;;;;;;;19.93;77.21;100589.88;5085156;28;20512;-80
2023/05/25 10:17:39;;;;;;;11.75;6.57;;;;;;;20.11;76.83;100600.56;5076749;28;20075;-80
2023/05/25 10:20:24;;;;;;;16.80;7.63;;;;;;;19.98;76.35;100598.03;5082302;28;20043;-78
2023/05/25 10:23:17;;;;;;;17.17;8.00;;;;;;;19.92;76.92;100596.25;5072499;28;20043;-80
2023/05/25 10:26:04;;;;;;;19.00;8.27;;;;;;;19.88;77.65;100584.38;5082528;28;20165;-80
2023/05/25 10:28:50;;;;;;;14.93;7.13;;;;;;;20.01;77.23;100594.13;5084037;28;20067;-80
2023/05/25 10:31:36;;;;;;;14.38;7.95;;;;;;;19.77;78.33;100592.00;5075118;28;20127;-80
2023/05/25 10:34:21;;;;;;;22.98;8.35;;;;;;;19.40;79.18;100589.22;5079535;28;20040;-81
2023/05/25 10:37:06;;;;;;;17.17;7.05;;;;;;;20.02;78.81;100593.88;5075721;28;20532;-80
2023/05/25 10:39:52;;;;;;;16.13;6.72;;;;;;;20.37;77.09;100587.22;5081498;28;20038;-81
2023/05/25 10:42:37;;;;;;;15.38;6.07;;;;;;;20.79;75.82;100587.34;5078977;28;20090;-78
2023/05/25 10:45:21;;;;;;;12.20;6.88;;;;;;;21.26;77.17;100584.06;5079541;28;20529;-79
2023/05/25 10:48:05;;;;;;;12.48;6.40;;;;;;;21.88;76.73;100590.13;5079103;28;20093;-79
2023/05/25 10:50:51;;;;;;;14.00;6.45;;;;;;;22.26;73.56;100580.81;5079896;28;20118;-80
2023/05/25 10:53:35;;;;;;;8.95;5.93;;;;;;;22.64;70.72;100589.38;5074823;28;20122;-78
2023/05/25 10:56:20;;;;;;;11.30;6.00;;;;;;;22.76;70.07;100596.56;5078358;28;20126;-80
2023/05/25 10:59:04;;;;;;;10.43;6.07;;;;;;;23.22;69.97;100594.75;5078405;28;20492;-81
2023/05/25 11:01:51;;;;;;;13.77;6.50;;;;;;;23.38;70.93;100578.94;5080140;28;20044;-81
2023/05/25 11:04:36;;;;;;;10.25;5.80;;;;;;;23.61;69.21;100601.31;5078476;28;20507;-83
2023/05/25 11:07:20;;;;;;;13.05;6.55;;;;;;;22.95;66.41;100592.63;5073253;28;20424;-82
2023/05/25 11:10:06;;;;;;;11.80;6.63;;;;;;;22.63;67.45;100595.78;5081389;28;20101;-81
2023/05/25 11:12:50;;;;;;;18.17;6.70;;;;;;;22.31;69.43;100598.03;5068306;28;20046;-82
2023/05/25 11:15:35;;;;;;;10.55;6.43;;;;;;;22.45;69.40;100593.25;5080831;28;20047;-82
2023/05/25 11:18:19;;;;;;;10.77;6.13;;;;;;;21.96;68.15;100613.03;5087590;28;20094;-86
2023/05/25 11:21:15;;;;;;;9.48;5.78;;;;;;;22.17;68.17;100587.56;5077800;28;20089;-80
2023/05/25 11:24:10;;;;;;;14.32;6.20;;;;;;;21.68;67.65;100601.16;5080926;28;20101;-80
2023/05/25 11:27:00;;;;;;;14.98;6.22;;;;;;;20.65;68.49;100600.03;5076515;28;20098;-80
2023/05/25 11:29:49;;;;;;;8.40;5.57;;;;;;;20.93;68.91;100601.34;5083523;28;20476;-80
2023/05/25 11:32:38;;;;;;;8.05;6.10;;;;;;;21.26;69.17;100602.75;5079393;28;20546;-81
2023/05/25 11:35:25;;;;;;;11.43;6.30;;;;;;;22.23;68.92;100586.63;5074336;28;20051;-80
2023/05/25 11:38:09;;;;;;;14.63;6.43;;;;;;;22.89;67.56;100585.56;5084363;28;20038;-81
2023/05/25 11:40:54;;;;;;;12.85;7.10;;;;;;;23.87;66.81;100588.31;5079159;28;20039;-81
2023/05/25 11:43:39;;;;;;;10.65;5.78;;;;;;;24.32;65.57;100571.25;5080294;28;20052;-81
2023/05/25 11:46:23;;;;;;;10.35;5.28;;;;;;;24.64;62.70;100586.66;5082679;28;20058;-82
2023/05/25 11:49:08;;;;;;;12.95;5.90;;;;;;;25.26;63.12;100594.59;5082903;28;20067;-81
2023/05/25 11:51:53;;;;;;;8.82;4.93;;;;;;;25.59;61.01;100587.34;5081793;28;20069;-82
2023/05/25 11:54:39;;;;;;;7.93;5.47;;;;;;;25.56;59.98;100587.09;5081878;28;20089;-81
2023/05/25 11:57:24;;;;;;;11.65;5.35;;;;;;;25.32;58.92;100582.00;5082099;28;20035;-83
2023/05/25 12:00:10;;;;;;;8.45;4.97;;;;;;;24.76;58.63;100578.50;5078820;28;20047;-80
2023/05/25 12:02:55;;;;;;;10.68;5.20;;;;;;;24.83;58.24;100577.50;5084802;28;20063;-87
2023/05/25 12:05:39;;;;;;;13.75;5.50;;;;;;;24.91;58.67;100588.59;5083210;28;20058;-86
2023/05/25 12:08:36;;;;;;;7.63;4.57;;;;;;;24.79;58.99;100585.25;5085133;28;20047;-87
2023/05/25 12:11:29;;;;;;;8.75;5.13;;;;;;;24.63;58.74;100582.38;5088065;28;20084;-88
2023/05/25 12:14:13;;;;;;;11.07;5.03;;;;;;;24.74;56.10;100575.22;5078193;28;20099;-87
2023/05/25 12:16:57;;;;;;;10.85;5.28;;;;;;;25.04;56.47;100583.91;5080785;28;20141;-87
2023/05/25 12:19:42;;;;;;;7.97;5.03;;;;;;;25.12;57.56;100571.88;5083108;28;20508;-87
2023/05/25 12:22:26;;;;;;;9.45;5.55;;;;;;;24.33;57.56;100577.44;5088375;28;20089;-84
2023/05/25 12:25:12;;;;;;;14.15;5.38;;;;;;;24.67;58.06;100580.00;5089233;28;20044;-85
2023/05/25 12:28:13;;;;;;;9.65;4.40;;;;;;;24.54;58.41;100581.16;5082507;28;20102;-83
2023/05/25 12:30:57;;;;;;;7.70;5.05;;;;;;;24.76;58.01;100565.09;5086858;28;20090;-84
2023/05/25 12:33:41;;;;;;;9.50;4.93;;;;;;;24.15;59.34;100583.88;5078123;28;20052;-84
2023/05/25 12:36:38;;;;;;;11.55;5.43;;;;;;;23.85;59.91;100587.75;5081511;28;20035;-84
2023/05/25 12:39:23;;;;;;;9.98;5.05;;;;;;;23.99;59.15;100578.31;5084622;28;20128;-84
2023/05/25 12:42:13;;;;;;;11.82;5.40;;;;;;;24.19;59.09;100582.34;5084129;28;20075;-85
2023/05/25 12:45:00;;;;;;;9.95;5.32;;;;;;;24.04;59.81;100573.03;5080250;28;20038;-84
2023/05/25 12:47:45;;;;;;;9.82;5.28;;;;;;;24.22;58.80;100579.19;5084338;28;20067;-86